createdAt,value
2019-02-11T00:00:02.707Z,4.40
2019-02-11T00:02:36.307Z,4.40
2019-02-11T00:05:09.263Z,4.40
2019-02-11T00:07:40.568Z,4.30
2019-02-11T00:10:11.679Z,4.30
2019-02-11T00:12:43.015Z,4.20
2019-02-11T00:15:15.654Z,4.20
2019-02-11T00:17:46.971Z,4.10
2019-02-11T00:20:18.410Z,4.00
2019-02-11T00:22:49.651Z,4.00
2019-02-11T00:25:23.217Z,3.90
2019-02-11T00:27:54.166Z,3.80
2019-02-11T00:30:25.227Z,3.70
2019-02-11T00:32:57.111Z,3.60
2019-02-11T00:35:28.528Z,3.50
2019-02-11T00:38:00.599Z,3.40
2019-02-11T00:40:32.180Z,3.30
2019-02-11T00:43:03.910Z,3.20
2019-02-11T00:45:35.562Z,3.10
2019-02-11T00:48:07.227Z,3.00
2019-02-11T00:50:39.105Z,3.00
2019-02-11T00:53:10.363Z,3.00
2019-02-11T00:55:42.285Z,2.90
2019-02-11T00:58:13.616Z,2.80
2019-02-11T01:00:47.132Z,2.60
2019-02-11T01:03:19.815Z,2.60
2019-02-11T01:05:52.251Z,2.60
2019-02-11T01:08:23.584Z,2.60
2019-02-11T01:10:56.528Z,2.50
2019-02-11T01:13:28.142Z,2.50
2019-02-11T01:15:59.892Z,2.40
2019-02-11T01:18:31.585Z,2.40
2019-02-11T01:21:03.160Z,2.30
2019-02-11T01:23:34.498Z,2.20
2019-02-11T01:26:05.524Z,2.20
2019-02-11T01:28:36.565Z,2.20
2019-02-11T01:31:07.499Z,2.00
2019-02-11T01:33:39.554Z,2.00
2019-02-11T01:36:10.474Z,1.90
2019-02-11T01:38:41.337Z,1.80
2019-02-11T01:41:12.254Z,1.80
2019-02-11T01:43:44.750Z,1.90
2019-02-11T01:46:15.585Z,1.80
2019-02-11T01:48:46.420Z,1.80
2019-02-11T01:51:17.464Z,1.80
2019-02-11T01:53:49.657Z,1.90
2019-02-11T01:56:20.569Z,1.80
2019-02-11T01:58:51.393Z,1.90
2019-02-11T02:01:22.320Z,1.80
2019-02-11T02:03:54.393Z,1.80
2019-02-11T02:06:25.326Z,1.80
2019-02-11T02:08:56.265Z,1.80
2019-02-11T02:11:27.321Z,1.80
2019-02-11T02:13:58.362Z,1.70
2019-02-11T02:18:59.724Z,1.60
2019-02-11T02:21:31.583Z,1.60
2019-02-11T02:24:02.422Z,1.60
2019-02-11T02:26:33.346Z,1.60
2019-02-11T02:29:04.269Z,1.70
2019-02-11T02:31:35.155Z,1.70
2019-02-11T02:34:06.072Z,1.70
2019-02-11T02:36:37.011Z,1.70
2019-02-11T02:39:07.846Z,1.70
2019-02-11T02:41:38.783Z,1.80
2019-02-11T02:44:10.028Z,1.90
2019-02-11T02:46:40.864Z,2.00
2019-02-11T02:49:11.805Z,2.00
2019-02-11T02:51:44.322Z,2.10
2019-02-11T02:54:16.444Z,2.20
2019-02-11T02:56:49.129Z,2.20
2019-02-11T02:59:20.136Z,2.30
2019-02-11T03:01:51.097Z,2.40
2019-02-11T03:04:23.496Z,2.50
2019-02-11T03:06:54.484Z,2.50
2019-02-11T03:09:25.450Z,2.60
2019-02-11T03:11:56.389Z,2.70
2019-02-11T03:14:27.324Z,2.70
2019-02-11T03:16:58.264Z,2.80
2019-02-11T03:19:29.099Z,2.90
2019-02-11T03:22:00.038Z,2.90
2019-02-11T03:24:30.981Z,2.90
2019-02-11T03:27:01.913Z,3.00
2019-02-11T03:29:32.750Z,3.00
2019-02-11T03:32:04.920Z,3.10
2019-02-11T03:34:35.757Z,3.10
2019-02-11T03:37:06.553Z,3.10
2019-02-11T03:39:37.499Z,3.20
2019-02-11T03:42:09.568Z,3.10
2019-02-11T03:44:40.498Z,3.10
2019-02-11T03:47:12.486Z,3.00
2019-02-11T03:49:43.395Z,3.00
2019-02-11T03:52:14.960Z,2.90
2019-02-11T03:54:45.814Z,2.90
2019-02-11T03:57:16.755Z,2.90
2019-02-11T03:59:47.691Z,2.80
2019-02-11T04:02:19.246Z,2.80
2019-02-11T04:04:51.205Z,2.80
2019-02-11T04:07:22.145Z,2.90
2019-02-11T04:09:54.107Z,3.00
2019-02-11T04:12:27.228Z,3.10
2019-02-11T04:14:58.133Z,3.10
2019-02-11T04:17:28.965Z,3.20
2019-02-11T04:19:59.817Z,3.30
2019-02-11T04:22:30.744Z,3.30
2019-02-11T04:25:01.680Z,3.30
2019-02-11T04:27:34.378Z,3.40
2019-02-11T04:30:09.028Z,3.40
2019-02-11T04:32:41.235Z,3.50
2019-02-11T04:35:12.187Z,3.50
2019-02-11T04:37:43.026Z,3.50
2019-02-11T04:40:13.967Z,3.50
2019-02-11T04:42:46.234Z,3.50
2019-02-11T04:45:17.172Z,3.60
2019-02-11T04:47:48.109Z,3.60
2019-02-11T04:50:19.046Z,3.60
2019-02-11T04:52:49.883Z,3.60
2019-02-11T04:55:20.823Z,3.50
2019-02-11T04:57:52.644Z,3.60
2019-02-11T05:00:23.514Z,3.60
2019-02-11T05:02:54.272Z,3.60
2019-02-11T05:05:25.163Z,3.60
2019-02-11T05:07:57.878Z,3.60
2019-02-11T05:10:28.800Z,3.60
2019-02-11T05:12:59.951Z,3.50
2019-02-11T05:15:30.746Z,3.50
2019-02-11T05:20:32.655Z,3.50
2019-02-11T05:23:03.599Z,3.50
2019-02-11T05:25:34.542Z,3.50
2019-02-11T05:28:05.367Z,3.60
2019-02-11T05:30:36.206Z,3.50
2019-02-11T05:33:08.606Z,3.40
2019-02-11T05:35:39.614Z,3.40
2019-02-11T05:38:10.541Z,3.50
2019-02-11T05:40:41.496Z,3.50
2019-02-11T05:43:15.053Z,3.50
2019-02-11T05:45:45.931Z,3.60
2019-02-11T05:48:16.869Z,3.60
2019-02-11T05:50:47.809Z,3.60
2019-02-11T05:53:21.816Z,3.60
2019-02-11T05:55:52.856Z,3.60
2019-02-11T05:58:23.798Z,3.60
2019-02-11T06:00:54.730Z,3.70
2019-02-11T06:03:26.917Z,3.80
2019-02-11T06:05:57.860Z,3.80
2019-02-11T06:08:28.672Z,3.80
2019-02-11T06:10:59.506Z,3.80
2019-02-11T06:13:31.642Z,3.80
2019-02-11T06:16:02.611Z,3.90
2019-02-11T06:18:34.062Z,3.90
2019-02-11T06:21:05.001Z,3.90
2019-02-11T06:23:36.214Z,3.90
2019-02-11T06:26:07.198Z,3.90
2019-02-11T06:28:38.123Z,3.90
2019-02-11T06:31:09.068Z,4.00
2019-02-11T06:33:40.616Z,4.00
2019-02-11T06:36:12.842Z,4.00
2019-02-11T06:38:43.924Z,4.00
2019-02-11T06:41:14.857Z,4.00
2019-02-11T06:43:45.902Z,4.10
2019-02-11T06:46:16.810Z,4.00
2019-02-11T06:48:47.775Z,4.00
2019-02-11T06:51:18.609Z,4.00
2019-02-11T06:53:50.264Z,4.10
2019-02-11T06:56:21.206Z,4.10
2019-02-11T06:58:52.117Z,4.00
2019-02-11T07:01:23.062Z,4.10
2019-02-11T07:03:54.020Z,4.10
2019-02-11T07:06:24.957Z,4.10
2019-02-11T07:08:55.793Z,4.10
2019-02-11T07:11:26.732Z,4.20
2019-02-11T07:13:59.103Z,4.20
2019-02-11T07:16:30.041Z,4.20
2019-02-11T07:19:00.978Z,4.20
2019-02-11T07:21:31.913Z,4.20
2019-02-11T07:24:03.880Z,4.20
2019-02-11T07:26:34.815Z,4.20
2019-02-11T07:29:05.754Z,4.20
2019-02-11T07:31:36.589Z,4.30
2019-02-11T07:34:07.529Z,4.30
2019-02-11T07:36:38.464Z,4.30
2019-02-11T07:39:09.683Z,4.30
2019-02-11T07:41:42.187Z,4.40
2019-02-11T07:44:17.395Z,4.40
2019-02-11T07:46:48.348Z,4.50
2019-02-11T07:49:19.200Z,4.50
2019-02-11T07:51:50.138Z,4.50
2019-02-11T07:54:21.075Z,4.50
2019-02-11T07:56:51.910Z,4.50
2019-02-11T07:59:22.746Z,4.50
2019-02-11T08:01:54.916Z,4.50
2019-02-11T08:04:25.852Z,4.50
2019-02-11T08:06:56.786Z,4.50
2019-02-11T08:09:27.696Z,4.50
2019-02-11T08:12:00.413Z,4.60
2019-02-11T08:14:31.415Z,4.70
2019-02-11T08:17:02.362Z,4.70
2019-02-11T08:19:33.320Z,4.70
2019-02-11T08:22:04.260Z,4.80
2019-02-11T08:24:35.171Z,4.90
2019-02-11T08:27:06.117Z,4.90
2019-02-11T08:29:37.079Z,4.90
2019-02-11T08:32:08.015Z,5.50
2019-02-11T08:34:38.951Z,6.00
2019-02-11T08:37:09.894Z,5.60
2019-02-11T08:39:42.072Z,5.30
2019-02-11T08:42:15.528Z,5.30
2019-02-11T08:44:46.698Z,5.50
2019-02-11T08:47:19.372Z,5.70
2019-02-11T08:49:50.106Z,5.70
2019-02-11T08:52:21.043Z,5.80
2019-02-11T08:54:51.985Z,5.80
2019-02-11T08:57:22.829Z,5.70
2019-02-11T08:59:54.168Z,6.00
2019-02-11T09:02:25.081Z,6.10
2019-02-11T09:04:55.943Z,6.40
2019-02-11T09:07:26.749Z,7.30
2019-02-11T09:09:58.404Z,8.10
2019-02-11T09:12:29.472Z,6.80
2019-02-11T09:15:00.316Z,6.40
2019-02-11T09:17:31.243Z,6.20
2019-02-11T09:20:02.154Z,6.00
2019-02-11T09:22:33.123Z,5.90
2019-02-11T09:25:04.365Z,5.90
2019-02-11T09:27:35.286Z,5.90
2019-02-11T09:30:10.218Z,5.90
2019-02-11T09:32:41.174Z,5.80
2019-02-11T09:35:12.204Z,5.90
2019-02-11T09:37:43.052Z,5.90
2019-02-11T09:40:16.655Z,5.70
2019-02-11T09:42:49.975Z,5.70
2019-02-11T09:45:23.206Z,5.70
2019-02-11T09:47:54.072Z,5.70
2019-02-11T09:50:32.021Z,5.70
2019-02-11T09:53:04.012Z,5.60
2019-02-11T09:55:35.162Z,5.60
2019-02-11T09:58:06.123Z,5.60
2019-02-11T10:00:38.289Z,6.00
2019-02-11T10:03:09.229Z,6.20
2019-02-11T10:05:41.187Z,6.10
2019-02-11T10:08:12.126Z,6.00
2019-02-11T10:10:44.170Z,6.00
2019-02-11T10:13:15.129Z,6.00
2019-02-11T10:15:45.971Z,6.00
2019-02-11T10:18:16.905Z,6.00
2019-02-11T10:20:49.376Z,6.00
2019-02-11T10:23:22.092Z,6.20
2019-02-11T10:25:52.994Z,6.10
2019-02-11T10:28:23.928Z,5.90
2019-02-11T10:30:56.307Z,5.90
2019-02-11T10:33:27.213Z,5.80
2019-02-11T10:35:58.177Z,5.90
2019-02-11T10:38:36.364Z,6.20
2019-02-11T10:41:02.482Z,6.50
2019-02-11T10:43:33.451Z,6.50
2019-02-11T10:46:04.489Z,6.40
2019-02-11T10:48:35.428Z,6.90
2019-02-11T10:51:06.367Z,8.00
2019-02-11T10:53:37.287Z,7.70
2019-02-11T10:56:08.243Z,7.70
2019-02-11T10:58:39.182Z,7.50
2019-02-11T11:01:13.196Z,7.60
2019-02-11T11:03:45.110Z,7.20
2019-02-11T11:06:18.135Z,7.20
2019-02-11T11:08:50.183Z,7.20
2019-02-11T11:11:24.460Z,7.10
2019-02-11T11:13:55.839Z,7.00
2019-02-11T11:16:29.621Z,6.80
2019-02-11T11:18:59.587Z,6.70
2019-02-11T11:21:31.012Z,6.50
2019-02-11T11:24:02.861Z,6.40
2019-02-11T11:26:33.941Z,6.50
2019-02-11T11:29:06.216Z,6.60
2019-02-11T11:31:38.478Z,6.70
2019-02-11T11:34:10.258Z,6.80
2019-02-11T11:36:43.301Z,6.80
2019-02-11T11:39:20.308Z,6.70
2019-02-11T11:41:53.161Z,7.10
2019-02-11T11:44:24.905Z,7.40
2019-02-11T11:46:57.425Z,7.60
2019-02-11T11:49:29.965Z,8.20
2019-02-11T11:52:02.481Z,7.90
2019-02-11T11:54:34.591Z,7.60
2019-02-11T11:57:07.449Z,7.40
2019-02-11T11:59:38.987Z,7.30
2019-02-11T12:02:15.255Z,7.30
2019-02-11T12:04:43.741Z,7.20
2019-02-11T12:07:15.460Z,7.10
2019-02-11T12:09:49.058Z,7.00
2019-02-11T12:12:22.033Z,6.90
2019-02-11T12:14:53.313Z,6.90
2019-02-11T12:17:24.620Z,6.80
2019-02-11T12:19:56.010Z,6.90
2019-02-11T12:22:29.185Z,7.00
2019-02-11T12:25:00.491Z,6.90
2019-02-11T12:27:31.783Z,6.80
2019-02-11T12:30:03.363Z,6.60
2019-02-11T12:32:36.711Z,6.40
2019-02-11T12:35:10.969Z,6.20
2019-02-11T12:37:45.016Z,5.90
2019-02-11T12:40:16.768Z,5.30
2019-02-11T12:42:48.485Z,5.30
2019-02-11T12:45:22.058Z,5.40
2019-02-11T12:47:55.793Z,5.60
2019-02-11T12:50:27.385Z,5.60
2019-02-11T12:52:58.273Z,5.60
2019-02-11T12:55:29.228Z,5.70
2019-02-11T12:58:00.254Z,5.70
2019-02-11T13:00:31.182Z,5.70
2019-02-11T13:03:02.107Z,5.70
2019-02-11T13:05:44.904Z,5.80
2019-02-11T13:08:07.454Z,8.30
2019-02-11T13:10:40.467Z,9.30
2019-02-11T13:13:12.465Z,10.50
2019-02-11T13:16:00.264Z,11.30
2019-02-11T13:18:16.913Z,12.20
2019-02-11T13:20:48.697Z,12.70
2019-02-11T13:23:20.182Z,13.50
2019-02-11T13:25:51.829Z,13.00
2019-02-11T13:28:23.517Z,13.60
2019-02-11T13:30:55.177Z,12.80
2019-02-11T13:33:27.461Z,12.60
2019-02-11T13:35:59.068Z,12.90
2019-02-11T13:38:30.520Z,12.20
2019-02-11T13:41:01.637Z,11.70
2019-02-11T13:43:33.698Z,12.00
2019-02-11T13:46:05.334Z,12.00
2019-02-11T13:48:36.620Z,11.10
2019-02-11T13:51:07.644Z,10.90
2019-02-11T13:53:43.942Z,10.60
2019-02-11T13:56:14.221Z,11.60
2019-02-11T13:58:45.573Z,12.20
2019-02-11T14:01:17.323Z,11.40
2019-02-11T14:03:49.542Z,11.60
2019-02-11T14:06:20.698Z,12.40
2019-02-11T14:08:52.198Z,12.20
2019-02-11T14:11:23.606Z,13.30
2019-02-11T14:14:02.256Z,12.90
2019-02-11T14:16:28.287Z,12.40
2019-02-11T14:18:59.559Z,10.80
2019-02-11T14:21:32.189Z,10.80
2019-02-11T14:24:03.677Z,10.00
2019-02-11T14:26:35.120Z,8.90
2019-02-11T14:29:06.455Z,8.20
2019-02-11T14:31:38.035Z,7.80
2019-02-11T14:34:10.970Z,7.60
2019-02-11T14:36:43.870Z,8.10
2019-02-11T14:39:16.761Z,7.90
2019-02-11T14:41:47.895Z,9.00
2019-02-11T14:44:20.295Z,8.90
2019-02-11T14:46:51.645Z,7.80
2019-02-11T14:49:22.996Z,7.20
2019-02-11T14:51:54.236Z,6.80
2019-02-11T14:54:27.018Z,7.90
2019-02-11T14:56:58.210Z,8.10
2019-02-11T14:59:29.200Z,7.90
2019-02-11T15:02:00.138Z,8.50
2019-02-11T15:04:31.488Z,7.80
2019-02-11T15:07:02.321Z,7.10
2019-02-11T15:09:33.160Z,6.70
2019-02-11T15:12:04.205Z,6.30
2019-02-11T15:14:36.236Z,6.10
2019-02-11T15:17:07.198Z,5.90
2019-02-11T15:19:38.033Z,5.80
2019-02-11T15:22:08.972Z,5.90
2019-02-11T15:24:42.308Z,6.10
2019-02-11T15:27:17.293Z,6.40
2019-02-11T15:29:45.883Z,6.50
2019-02-11T15:32:16.822Z,6.50
2019-02-11T15:34:48.175Z,6.20
2019-02-11T15:37:19.080Z,5.90
2019-02-11T15:39:50.047Z,5.70
2019-02-11T15:42:20.882Z,5.60
2019-02-11T15:44:51.820Z,5.70
2019-02-11T15:47:22.623Z,5.70
2019-02-11T15:49:53.594Z,5.70
2019-02-11T15:52:24.605Z,5.50
2019-02-11T15:54:55.569Z,5.30
2019-02-11T15:57:26.509Z,5.30
2019-02-11T15:59:57.420Z,5.10
2019-02-11T16:02:28.384Z,5.10
2019-02-11T16:05:02.338Z,5.10
2019-02-11T16:07:31.796Z,5.00
2019-02-11T16:10:04.565Z,5.10
2019-02-11T16:12:35.725Z,5.10
2019-02-11T16:15:10.194Z,5.30
2019-02-11T16:17:41.282Z,5.30
2019-02-11T16:20:15.704Z,5.20
2019-02-11T16:22:46.845Z,5.20
2019-02-11T16:25:18.308Z,5.20
2019-02-11T16:27:49.138Z,5.20
2019-02-11T16:30:20.910Z,5.20
2019-02-11T16:32:53.168Z,5.20
2019-02-11T16:35:24.919Z,5.10
2019-02-11T16:37:56.325Z,5.00
2019-02-11T16:40:33.565Z,4.90
2019-02-11T16:43:05.002Z,4.70
2019-02-11T16:45:36.965Z,4.80
2019-02-11T16:48:08.104Z,4.70
2019-02-11T16:50:39.045Z,4.70
2019-02-11T16:53:10.422Z,4.60
2019-02-11T16:55:41.841Z,4.60
2019-02-11T16:58:12.778Z,4.50
2019-02-11T17:00:43.923Z,4.50
2019-02-11T17:03:14.839Z,4.40
2019-02-11T17:05:46.211Z,4.20
2019-02-11T17:08:17.254Z,4.20
2019-02-11T17:10:48.185Z,4.00
2019-02-11T17:13:20.252Z,4.00
2019-02-11T17:15:51.497Z,4.00
2019-02-11T17:18:22.543Z,3.90
2019-02-11T17:20:53.378Z,3.90
2019-02-11T17:23:24.415Z,3.80
2019-02-11T17:25:56.158Z,3.90
2019-02-11T17:28:27.210Z,3.80
2019-02-11T17:30:58.764Z,3.80
2019-02-11T17:33:30.111Z,3.70
2019-02-11T17:36:01.559Z,3.60
2019-02-11T17:38:32.546Z,3.60
2019-02-11T17:41:03.539Z,3.50
2019-02-11T17:43:34.477Z,3.30
2019-02-11T17:46:06.321Z,3.10
2019-02-11T17:48:37.475Z,3.10
2019-02-11T17:51:08.356Z,3.00
2019-02-11T17:53:40.486Z,2.80
2019-02-11T17:58:42.875Z,2.60
2019-02-11T18:01:13.912Z,2.50
2019-02-11T18:03:44.848Z,2.50
2019-02-11T18:06:16.168Z,2.40
2019-02-11T18:08:47.030Z,2.30
2019-02-11T18:11:17.842Z,2.20
2019-02-11T18:13:48.804Z,2.30
2019-02-11T18:16:20.833Z,2.10
2019-02-11T18:18:51.913Z,2.20
2019-02-11T18:21:22.850Z,2.10
2019-02-11T18:23:54.920Z,2.10
2019-02-11T18:26:27.902Z,2.20
2019-02-11T18:29:00.095Z,2.30
2019-02-11T18:31:32.555Z,2.30
2019-02-11T18:34:05.060Z,2.30
2019-02-11T18:36:38.727Z,2.30
2019-02-11T18:39:13.308Z,2.30
2019-02-11T18:41:45.003Z,2.30
2019-02-11T18:44:17.188Z,2.40
2019-02-11T18:46:50.060Z,2.40
2019-02-11T18:49:21.784Z,2.40
2019-02-11T18:51:53.048Z,2.50
2019-02-11T18:54:26.027Z,2.50
2019-02-11T18:56:59.051Z,2.60
2019-02-11T18:59:30.954Z,2.50
2019-02-11T19:02:03.347Z,2.70
2019-02-11T19:04:36.059Z,2.70
2019-02-11T19:07:09.350Z,2.80
2019-02-11T19:09:41.611Z,2.90
2019-02-11T19:12:14.175Z,2.70
2019-02-11T19:14:46.412Z,2.80
2019-02-11T19:17:18.782Z,2.80
2019-02-11T19:19:51.196Z,2.80
2019-02-11T19:22:23.576Z,2.90
2019-02-11T19:24:55.922Z,2.80
2019-02-11T19:27:29.707Z,2.80
2019-02-11T19:30:01.424Z,2.80
2019-02-11T19:32:33.703Z,2.90
2019-02-11T19:35:06.204Z,2.90
2019-02-11T19:37:39.872Z,2.80
2019-02-11T19:40:14.873Z,2.80
2019-02-11T19:42:46.974Z,2.80
2019-02-11T19:45:24.016Z,2.80
2019-02-11T19:47:57.781Z,2.80
2019-02-11T19:50:30.463Z,2.60
2019-02-11T19:53:04.748Z,2.70
2019-02-11T19:55:37.597Z,2.60
2019-02-11T19:58:11.036Z,2.50
2019-02-11T20:00:45.147Z,2.60
2019-02-11T20:03:21.045Z,2.60
2019-02-11T20:05:53.722Z,2.50
2019-02-11T20:08:27.576Z,2.50
2019-02-11T20:11:00.575Z,2.30
2019-02-11T20:13:34.511Z,2.40
2019-02-11T20:16:09.067Z,2.40
2019-02-11T20:18:45.229Z,2.30
2019-02-11T20:21:17.957Z,2.30
2019-02-11T20:23:53.416Z,2.20
2019-02-11T20:26:26.866Z,2.30
2019-02-11T20:29:00.178Z,2.20
2019-02-11T20:31:32.873Z,2.30
2019-02-11T20:34:06.384Z,2.10
2019-02-11T20:36:39.272Z,2.00
2019-02-11T20:39:13.973Z,2.10
2019-02-11T20:41:50.376Z,2.10
2019-02-11T20:44:24.735Z,2.00
2019-02-11T20:46:59.374Z,1.90
2019-02-11T20:49:37.147Z,1.90
2019-02-11T20:52:09.096Z,2.00
2019-02-11T20:54:44.934Z,2.00
2019-02-11T20:57:19.759Z,2.00
2019-02-11T20:59:51.684Z,2.00
2019-02-11T21:02:24.068Z,2.00
2019-02-11T21:04:56.554Z,1.80
2019-02-11T21:07:30.460Z,1.70
2019-02-11T21:10:05.577Z,1.80
2019-02-11T21:12:38.751Z,1.90
2019-02-11T21:15:14.059Z,1.90
2019-02-11T21:17:45.231Z,1.90
2019-02-11T21:20:22.495Z,1.80
2019-02-11T21:22:56.351Z,1.80
2019-02-11T21:25:28.350Z,1.70
2019-02-11T21:28:02.168Z,1.70
2019-02-11T21:30:35.121Z,1.60
2019-02-11T21:33:10.260Z,1.70
2019-02-11T21:35:42.223Z,1.60
2019-02-11T21:38:13.600Z,1.60
2019-02-11T21:40:46.807Z,1.60
2019-02-11T21:43:19.258Z,1.60
2019-02-11T21:45:51.464Z,1.60
2019-02-11T21:48:22.776Z,1.60
2019-02-11T21:50:54.480Z,1.60
2019-02-11T21:53:29.269Z,1.60
2019-02-11T21:56:02.245Z,1.60
2019-02-11T21:58:33.563Z,1.50
2019-02-11T22:01:04.969Z,1.50
2019-02-11T22:03:38.229Z,1.60
2019-02-11T22:06:09.770Z,1.80
2019-02-11T22:08:41.895Z,2.00
2019-02-11T22:11:13.056Z,2.00
2019-02-11T22:13:45.880Z,2.10
2019-02-11T22:16:18.457Z,2.00
2019-02-11T22:18:51.724Z,1.90
2019-02-11T22:21:22.576Z,1.90
2019-02-11T22:23:55.042Z,1.90
2019-02-11T22:26:26.341Z,1.90
2019-02-11T22:28:57.441Z,1.80
2019-02-11T22:31:28.944Z,1.70
2019-02-11T22:34:01.266Z,1.70
2019-02-11T22:36:33.714Z,1.60
2019-02-11T22:39:06.969Z,1.60
2019-02-11T22:41:38.157Z,1.60
2019-02-11T22:44:11.109Z,1.70
2019-02-11T22:46:42.106Z,1.60
2019-02-11T22:49:14.166Z,1.70
2019-02-11T22:51:45.101Z,1.80
2019-02-11T22:54:17.255Z,1.70
2019-02-11T22:56:48.207Z,1.70
2019-02-11T22:59:19.144Z,1.80
2019-02-11T23:01:49.989Z,1.90
2019-02-11T23:04:22.550Z,1.90
2019-02-11T23:06:53.491Z,1.90
2019-02-11T23:09:24.407Z,2.00
2019-02-11T23:11:55.367Z,2.10
2019-02-11T23:14:27.639Z,2.20
2019-02-11T23:16:58.474Z,2.30
2019-02-11T23:19:29.410Z,2.30
2019-02-11T23:22:00.348Z,2.50
2019-02-11T23:24:32.416Z,2.50
2019-02-11T23:27:03.466Z,2.50
2019-02-11T23:29:34.289Z,2.60
2019-02-11T23:32:05.200Z,2.60
2019-02-11T23:34:39.081Z,2.60
2019-02-11T23:37:09.970Z,2.60
2019-02-11T23:39:40.908Z,2.70
2019-02-11T23:42:11.848Z,2.80
2019-02-11T23:44:42.783Z,2.80
2019-02-11T23:47:13.727Z,2.80
2019-02-11T23:49:44.765Z,2.80
2019-02-11T23:52:17.239Z,2.80
2019-02-11T23:54:48.177Z,2.90
2019-02-11T23:57:19.117Z,2.80
2019-02-11T23:59:50.053Z,2.80
